sensor_id;sensor_type;location;lat;lon;timestamp;P1;durP1;ratioP1;P2;durP2;ratioP2
4144;SDS011;2086;51.050;6.982;2022-08-20T00:00:32;1.77;;;1.40;;
4144;SDS011;2086;51.050;6.982;2022-08-20T00:03:04;2.00;;;1.10;;
4144;SDS011;2086;51.050;6.982;2022-08-20T00:05:31;9.30;;;1.20;;
4144;SDS011;2086;51.050;6.982;2022-08-20T00:07:58;2.13;;;1.23;;
4144;SDS011;2086;51.050;6.982;2022-08-20T00:10:23;0.90;;;0.90;;
4144;SDS011;2086;51.050;6.982;2022-08-20T00:12:49;2.40;;;1.00;;
4144;SDS011;2086;51.050;6.982;2022-08-20T00:15:15;1.80;;;1.30;;
4144;SDS011;2086;51.050;6.982;2022-08-20T00:17:40;0.90;;;0.90;;
4144;SDS011;2086;51.050;6.982;2022-08-20T00:20:07;2.10;;;1.27;;
4144;SDS011;2086;51.050;6.982;2022-08-20T00:22:33;2.47;;;1.70;;
4144;SDS011;2086;51.050;6.982;2022-08-20T00:24:58;1.70;;;1.60;;
4144;SDS011;2086;51.050;6.982;2022-08-20T00:27:24;1.83;;;1.73;;
4144;SDS011;2086;51.050;6.982;2022-08-20T00:29:49;2.97;;;2.03;;
4144;SDS011;2086;51.050;6.982;2022-08-20T00:32:14;2.97;;;1.83;;
4144;SDS011;2086;51.050;6.982;2022-08-20T00:34:39;1.30;;;1.30;;
4144;SDS011;2086;51.050;6.982;2022-08-20T00:37:06;2.87;;;1.23;;
4144;SDS011;2086;51.050;6.982;2022-08-20T00:39:32;2.43;;;2.27;;
4144;SDS011;2086;51.050;6.982;2022-08-20T00:41:57;3.57;;;1.50;;
4144;SDS011;2086;51.050;6.982;2022-08-20T00:44:23;3.30;;;2.57;;
4144;SDS011;2086;51.050;6.982;2022-08-20T00:46:49;3.20;;;2.00;;
4144;SDS011;2086;51.050;6.982;2022-08-20T00:49:16;1.93;;;1.83;;
4144;SDS011;2086;51.050;6.982;2022-08-20T00:51:46;6.40;;;2.60;;
4144;SDS011;2086;51.050;6.982;2022-08-20T00:56:49;2.70;;;2.50;;
4144;SDS011;2086;51.050;6.982;2022-08-20T00:59:17;1.83;;;1.73;;
4144;SDS011;2086;51.050;6.982;2022-08-20T01:01:43;2.23;;;2.13;;
4144;SDS011;2086;51.050;6.982;2022-08-20T01:04:09;3.10;;;1.80;;
4144;SDS011;2086;51.050;6.982;2022-08-20T01:06:36;2.17;;;2.07;;
4144;SDS011;2086;51.050;6.982;2022-08-20T01:09:01;3.60;;;2.30;;
4144;SDS011;2086;51.050;6.982;2022-08-20T01:11:27;4.43;;;1.53;;
4144;SDS011;2086;51.050;6.982;2022-08-20T01:13:59;2.70;;;2.60;;
4144;SDS011;2086;51.050;6.982;2022-08-20T01:16:26;2.37;;;2.17;;
4144;SDS011;2086;51.050;6.982;2022-08-20T01:18:53;4.40;;;3.20;;
4144;SDS011;2086;51.050;6.982;2022-08-20T01:21:19;2.60;;;2.00;;
4144;SDS011;2086;51.050;6.982;2022-08-20T01:23:55;2.90;;;2.53;;
4144;SDS011;2086;51.050;6.982;2022-08-20T01:26:25;2.00;;;1.90;;
4144;SDS011;2086;51.050;6.982;2022-08-20T01:28:55;2.80;;;2.23;;
4144;SDS011;2086;51.050;6.982;2022-08-20T01:31:22;4.03;;;1.80;;
4144;SDS011;2086;51.050;6.982;2022-08-20T01:33:48;2.53;;;2.33;;
4144;SDS011;2086;51.050;6.982;2022-08-20T01:36:14;2.00;;;1.90;;
4144;SDS011;2086;51.050;6.982;2022-08-20T01:38:40;1.47;;;1.37;;
4144;SDS011;2086;51.050;6.982;2022-08-20T01:43:33;2.20;;;2.10;;
4144;SDS011;2086;51.050;6.982;2022-08-20T01:45:59;1.50;;;1.10;;
4144;SDS011;2086;51.050;6.982;2022-08-20T01:48:25;1.33;;;1.30;;
4144;SDS011;2086;51.050;6.982;2022-08-20T01:50:59;4.60;;;1.93;;
4144;SDS011;2086;51.050;6.982;2022-08-20T01:53:29;2.10;;;2.00;;
4144;SDS011;2086;51.050;6.982;2022-08-20T01:55:57;2.50;;;2.30;;
4144;SDS011;2086;51.050;6.982;2022-08-20T01:58:22;4.90;;;2.30;;
4144;SDS011;2086;51.050;6.982;2022-08-20T02:00:48;2.77;;;2.67;;
4144;SDS011;2086;51.050;6.982;2022-08-20T02:03:13;2.33;;;2.13;;
4144;SDS011;2086;51.050;6.982;2022-08-20T02:05:39;1.70;;;1.60;;
4144;SDS011;2086;51.050;6.982;2022-08-20T02:08:04;2.67;;;2.47;;
4144;SDS011;2086;51.050;6.982;2022-08-20T02:10:29;2.07;;;1.97;;
4144;SDS011;2086;51.050;6.982;2022-08-20T02:12:58;3.93;;;3.27;;
4144;SDS011;2086;51.050;6.982;2022-08-20T02:15:24;2.50;;;2.30;;
4144;SDS011;2086;51.050;6.982;2022-08-20T02:17:49;5.43;;;1.70;;
4144;SDS011;2086;51.050;6.982;2022-08-20T02:20:16;3.50;;;2.70;;
4144;SDS011;2086;51.050;6.982;2022-08-20T02:22:53;2.20;;;2.00;;
4144;SDS011;2086;51.050;6.982;2022-08-20T02:25:19;1.83;;;1.60;;
4144;SDS011;2086;51.050;6.982;2022-08-20T02:27:45;2.87;;;1.37;;
4144;SDS011;2086;51.050;6.982;2022-08-20T02:30:14;2.47;;;2.30;;
4144;SDS011;2086;51.050;6.982;2022-08-20T02:32:40;2.00;;;1.90;;
4144;SDS011;2086;51.050;6.982;2022-08-20T02:35:06;3.07;;;2.00;;
4144;SDS011;2086;51.050;6.982;2022-08-20T02:37:33;2.30;;;2.10;;
4144;SDS011;2086;51.050;6.982;2022-08-20T02:39:58;1.67;;;1.57;;
4144;SDS011;2086;51.050;6.982;2022-08-20T02:42:23;3.60;;;2.47;;
4144;SDS011;2086;51.050;6.982;2022-08-20T02:44:49;6.53;;;2.70;;
4144;SDS011;2086;51.050;6.982;2022-08-20T02:47:14;2.60;;;2.40;;
4144;SDS011;2086;51.050;6.982;2022-08-20T02:49:41;3.80;;;2.27;;
4144;SDS011;2086;51.050;6.982;2022-08-20T02:52:06;4.10;;;2.80;;
4144;SDS011;2086;51.050;6.982;2022-08-20T02:54:31;3.93;;;2.20;;
4144;SDS011;2086;51.050;6.982;2022-08-20T02:56:56;2.40;;;2.30;;
4144;SDS011;2086;51.050;6.982;2022-08-20T02:59:22;2.00;;;1.87;;
4144;SDS011;2086;51.050;6.982;2022-08-20T03:01:47;2.53;;;2.30;;
4144;SDS011;2086;51.050;6.982;2022-08-20T03:04:12;7.13;;;2.63;;
4144;SDS011;2086;51.050;6.982;2022-08-20T03:06:38;5.63;;;2.90;;
4144;SDS011;2086;51.050;6.982;2022-08-20T03:09:03;2.17;;;2.07;;
4144;SDS011;2086;51.050;6.982;2022-08-20T03:11:30;3.73;;;2.07;;
4144;SDS011;2086;51.050;6.982;2022-08-20T03:13:56;2.10;;;2.00;;
4144;SDS011;2086;51.050;6.982;2022-08-20T03:16:21;1.40;;;1.30;;
4144;SDS011;2086;51.050;6.982;2022-08-20T03:18:46;1.80;;;1.70;;
4144;SDS011;2086;51.050;6.982;2022-08-20T03:21:12;1.90;;;1.80;;
4144;SDS011;2086;51.050;6.982;2022-08-20T03:23:37;1.77;;;1.33;;
4144;SDS011;2086;51.050;6.982;2022-08-20T03:26:04;2.07;;;1.97;;
4144;SDS011;2086;51.050;6.982;2022-08-20T03:28:29;1.60;;;1.50;;
4144;SDS011;2086;51.050;6.982;2022-08-20T03:30:54;2.80;;;2.43;;
4144;SDS011;2086;51.050;6.982;2022-08-20T03:33:20;2.77;;;2.30;;
4144;SDS011;2086;51.050;6.982;2022-08-20T03:35:46;2.00;;;1.90;;
4144;SDS011;2086;51.050;6.982;2022-08-20T03:38:12;2.07;;;1.97;;
4144;SDS011;2086;51.050;6.982;2022-08-20T03:40:38;1.90;;;1.80;;
4144;SDS011;2086;51.050;6.982;2022-08-20T03:43:04;2.10;;;1.60;;
4144;SDS011;2086;51.050;6.982;2022-08-20T03:45:30;1.73;;;1.63;;
4144;SDS011;2086;51.050;6.982;2022-08-20T03:47:57;1.77;;;1.67;;
4144;SDS011;2086;51.050;6.982;2022-08-20T03:50:23;2.67;;;2.47;;
4144;SDS011;2086;51.050;6.982;2022-08-20T03:52:52;2.17;;;2.03;;
4144;SDS011;2086;51.050;6.982;2022-08-20T03:55:18;3.00;;;1.53;;
4144;SDS011;2086;51.050;6.982;2022-08-20T03:57:45;1.90;;;1.53;;
4144;SDS011;2086;51.050;6.982;2022-08-20T04:00:11;3.47;;;1.70;;
4144;SDS011;2086;51.050;6.982;2022-08-20T04:02:37;1.97;;;1.57;;
4144;SDS011;2086;51.050;6.982;2022-08-20T04:05:03;1.50;;;1.40;;
4144;SDS011;2086;51.050;6.982;2022-08-20T04:07:28;1.90;;;1.80;;
4144;SDS011;2086;51.050;6.982;2022-08-20T04:09:54;2.33;;;2.20;;
4144;SDS011;2086;51.050;6.982;2022-08-20T04:12:20;1.47;;;1.37;;
4144;SDS011;2086;51.050;6.982;2022-08-20T04:14:46;2.20;;;2.00;;
4144;SDS011;2086;51.050;6.982;2022-08-20T04:17:12;2.73;;;2.30;;
4144;SDS011;2086;51.050;6.982;2022-08-20T04:19:38;1.97;;;1.87;;
4144;SDS011;2086;51.050;6.982;2022-08-20T04:22:04;1.50;;;1.40;;
4144;SDS011;2086;51.050;6.982;2022-08-20T04:24:29;1.60;;;1.50;;
4144;SDS011;2086;51.050;6.982;2022-08-20T04:26:54;2.33;;;2.13;;
4144;SDS011;2086;51.050;6.982;2022-08-20T04:29:22;1.73;;;1.63;;
4144;SDS011;2086;51.050;6.982;2022-08-20T04:31:48;6.37;;;2.00;;
4144;SDS011;2086;51.050;6.982;2022-08-20T04:34:13;1.83;;;1.73;;
4144;SDS011;2086;51.050;6.982;2022-08-20T04:36:41;5.73;;;2.20;;
4144;SDS011;2086;51.050;6.982;2022-08-20T04:39:06;1.60;;;1.50;;
4144;SDS011;2086;51.050;6.982;2022-08-20T04:41:31;1.47;;;1.37;;
4144;SDS011;2086;51.050;6.982;2022-08-20T04:43:56;1.80;;;1.70;;
4144;SDS011;2086;51.050;6.982;2022-08-20T04:46:23;4.60;;;2.20;;
4144;SDS011;2086;51.050;6.982;2022-08-20T04:48:49;3.27;;;2.20;;
4144;SDS011;2086;51.050;6.982;2022-08-20T04:51:14;2.80;;;1.70;;
4144;SDS011;2086;51.050;6.982;2022-08-20T04:53:40;5.40;;;2.50;;
4144;SDS011;2086;51.050;6.982;2022-08-20T04:56:05;6.10;;;3.10;;
4144;SDS011;2086;51.050;6.982;2022-08-20T04:58:35;2.40;;;2.30;;
4144;SDS011;2086;51.050;6.982;2022-08-20T05:01:02;3.27;;;3.07;;
4144;SDS011;2086;51.050;6.982;2022-08-20T05:03:29;2.50;;;2.30;;
4144;SDS011;2086;51.050;6.982;2022-08-20T05:05:54;2.20;;;2.10;;
4144;SDS011;2086;51.050;6.982;2022-08-20T05:08:21;4.07;;;3.70;;
4144;SDS011;2086;51.050;6.982;2022-08-20T05:10:49;2.77;;;2.53;;
4144;SDS011;2086;51.050;6.982;2022-08-20T05:13:15;4.47;;;3.10;;
4144;SDS011;2086;51.050;6.982;2022-08-20T05:15:40;3.27;;;2.97;;
4144;SDS011;2086;51.050;6.982;2022-08-20T05:18:06;3.10;;;2.90;;
4144;SDS011;2086;51.050;6.982;2022-08-20T05:20:33;8.30;;;3.23;;
4144;SDS011;2086;51.050;6.982;2022-08-20T05:22:59;3.97;;;3.43;;
4144;SDS011;2086;51.050;6.982;2022-08-20T05:25:24;5.90;;;3.53;;
4144;SDS011;2086;51.050;6.982;2022-08-20T05:28:00;4.07;;;3.77;;
4144;SDS011;2086;51.050;6.982;2022-08-20T05:30:26;3.00;;;2.80;;
4144;SDS011;2086;51.050;6.982;2022-08-20T05:32:57;4.00;;;3.67;;
4144;SDS011;2086;51.050;6.982;2022-08-20T05:35:22;2.90;;;2.70;;
4144;SDS011;2086;51.050;6.982;2022-08-20T05:37:47;4.80;;;3.20;;
4144;SDS011;2086;51.050;6.982;2022-08-20T05:40:13;5.73;;;4.00;;
4144;SDS011;2086;51.050;6.982;2022-08-20T05:42:39;5.07;;;4.67;;
4144;SDS011;2086;51.050;6.982;2022-08-20T05:45:05;9.17;;;4.93;;
4144;SDS011;2086;51.050;6.982;2022-08-20T05:47:30;6.23;;;5.50;;
4144;SDS011;2086;51.050;6.982;2022-08-20T05:49:56;11.97;;;6.37;;
4144;SDS011;2086;51.050;6.982;2022-08-20T05:52:21;10.30;;;7.23;;
4144;SDS011;2086;51.050;6.982;2022-08-20T05:54:47;12.03;;;6.87;;
4144;SDS011;2086;51.050;6.982;2022-08-20T05:57:15;14.03;;;8.00;;
4144;SDS011;2086;51.050;6.982;2022-08-20T05:59:43;21.73;;;8.17;;
4144;SDS011;2086;51.050;6.982;2022-08-20T06:02:08;12.23;;;8.33;;
4144;SDS011;2086;51.050;6.982;2022-08-20T06:04:53;10.97;;;7.43;;
4144;SDS011;2086;51.050;6.982;2022-08-20T06:07:18;15.80;;;9.60;;
4144;SDS011;2086;51.050;6.982;2022-08-20T06:09:44;10.60;;;7.73;;
4144;SDS011;2086;51.050;6.982;2022-08-20T06:12:09;15.73;;;8.00;;
4144;SDS011;2086;51.050;6.982;2022-08-20T06:14:34;18.00;;;10.07;;
4144;SDS011;2086;51.050;6.982;2022-08-20T06:17:07;15.93;;;9.57;;
4144;SDS011;2086;51.050;6.982;2022-08-20T06:19:33;15.70;;;9.20;;
4144;SDS011;2086;51.050;6.982;2022-08-20T06:21:59;16.73;;;9.20;;
4144;SDS011;2086;51.050;6.982;2022-08-20T06:24:24;21.30;;;9.50;;
4144;SDS011;2086;51.050;6.982;2022-08-20T06:26:54;17.87;;;10.20;;
4144;SDS011;2086;51.050;6.982;2022-08-20T06:29:19;11.77;;;8.60;;
4144;SDS011;2086;51.050;6.982;2022-08-20T06:31:44;11.40;;;7.73;;
4144;SDS011;2086;51.050;6.982;2022-08-20T06:34:10;15.03;;;9.43;;
4144;SDS011;2086;51.050;6.982;2022-08-20T06:36:35;16.60;;;9.20;;
4144;SDS011;2086;51.050;6.982;2022-08-20T06:39:00;12.37;;;7.73;;
4144;SDS011;2086;51.050;6.982;2022-08-20T06:41:25;17.33;;;9.90;;
4144;SDS011;2086;51.050;6.982;2022-08-20T06:43:51;15.70;;;9.90;;
4144;SDS011;2086;51.050;6.982;2022-08-20T06:46:18;20.50;;;9.77;;
4144;SDS011;2086;51.050;6.982;2022-08-20T06:48:43;18.40;;;10.17;;
4144;SDS011;2086;51.050;6.982;2022-08-20T06:51:08;15.33;;;9.10;;
4144;SDS011;2086;51.050;6.982;2022-08-20T06:53:34;27.70;;;9.53;;
4144;SDS011;2086;51.050;6.982;2022-08-20T06:55:59;11.80;;;7.37;;
4144;SDS011;2086;51.050;6.982;2022-08-20T06:58:25;13.33;;;8.50;;
4144;SDS011;2086;51.050;6.982;2022-08-20T07:00:50;11.30;;;8.07;;
4144;SDS011;2086;51.050;6.982;2022-08-20T07:03:15;12.13;;;7.87;;
4144;SDS011;2086;51.050;6.982;2022-08-20T07:05:41;12.10;;;8.77;;
4144;SDS011;2086;51.050;6.982;2022-08-20T07:08:08;15.97;;;8.03;;
4144;SDS011;2086;51.050;6.982;2022-08-20T07:10:33;12.50;;;8.27;;
4144;SDS011;2086;51.050;6.982;2022-08-20T07:12:59;10.80;;;7.60;;
4144;SDS011;2086;51.050;6.982;2022-08-20T07:15:25;11.57;;;8.03;;
4144;SDS011;2086;51.050;6.982;2022-08-20T07:17:54;9.57;;;7.63;;
4144;SDS011;2086;51.050;6.982;2022-08-20T07:20:19;16.10;;;8.10;;
4144;SDS011;2086;51.050;6.982;2022-08-20T07:22:45;13.40;;;8.03;;
4144;SDS011;2086;51.050;6.982;2022-08-20T07:25:11;16.23;;;8.27;;
4144;SDS011;2086;51.050;6.982;2022-08-20T07:27:38;8.70;;;7.00;;
4144;SDS011;2086;51.050;6.982;2022-08-20T07:30:04;9.23;;;7.77;;
4144;SDS011;2086;51.050;6.982;2022-08-20T07:32:48;7.93;;;7.07;;
4144;SDS011;2086;51.050;6.982;2022-08-20T07:35:14;12.10;;;7.83;;
4144;SDS011;2086;51.050;6.982;2022-08-20T07:37:41;10.43;;;7.20;;
4144;SDS011;2086;51.050;6.982;2022-08-20T07:40:07;13.67;;;7.63;;
4144;SDS011;2086;51.050;6.982;2022-08-20T07:42:33;14.53;;;8.37;;
4144;SDS011;2086;51.050;6.982;2022-08-20T07:44:58;13.40;;;7.70;;
4144;SDS011;2086;51.050;6.982;2022-08-20T07:47:23;8.87;;;6.33;;
4144;SDS011;2086;51.050;6.982;2022-08-20T07:49:49;16.07;;;8.20;;
4144;SDS011;2086;51.050;6.982;2022-08-20T07:52:14;12.37;;;8.37;;
4144;SDS011;2086;51.050;6.982;2022-08-20T07:54:40;14.17;;;7.77;;
4144;SDS011;2086;51.050;6.982;2022-08-20T07:57:05;18.73;;;9.50;;
4144;SDS011;2086;51.050;6.982;2022-08-20T07:59:30;12.70;;;7.60;;
4144;SDS011;2086;51.050;6.982;2022-08-20T08:01:56;13.53;;;8.60;;
4144;SDS011;2086;51.050;6.982;2022-08-20T08:04:22;14.40;;;7.53;;
4144;SDS011;2086;51.050;6.982;2022-08-20T08:06:49;13.33;;;9.07;;
4144;SDS011;2086;51.050;6.982;2022-08-20T08:09:14;16.23;;;10.00;;
4144;SDS011;2086;51.050;6.982;2022-08-20T08:11:40;14.00;;;9.20;;
4144;SDS011;2086;51.050;6.982;2022-08-20T08:14:07;14.30;;;8.73;;
4144;SDS011;2086;51.050;6.982;2022-08-20T08:16:34;15.97;;;8.73;;
4144;SDS011;2086;51.050;6.982;2022-08-20T08:19:00;20.23;;;10.07;;
4144;SDS011;2086;51.050;6.982;2022-08-20T08:21:26;14.90;;;9.90;;
4144;SDS011;2086;51.050;6.982;2022-08-20T08:23:51;12.40;;;8.30;;
4144;SDS011;2086;51.050;6.982;2022-08-20T08:26:17;18.03;;;10.60;;
4144;SDS011;2086;51.050;6.982;2022-08-20T08:28:44;16.33;;;10.90;;
4144;SDS011;2086;51.050;6.982;2022-08-20T08:31:10;15.57;;;8.57;;
4144;SDS011;2086;51.050;6.982;2022-08-20T08:33:35;12.23;;;7.97;;
4144;SDS011;2086;51.050;6.982;2022-08-20T08:36:02;14.93;;;8.53;;
4144;SDS011;2086;51.050;6.982;2022-08-20T08:38:29;14.97;;;7.60;;
4144;SDS011;2086;51.050;6.982;2022-08-20T08:40:56;8.10;;;7.30;;
4144;SDS011;2086;51.050;6.982;2022-08-20T08:43:22;12.37;;;8.50;;
4144;SDS011;2086;51.050;6.982;2022-08-20T08:46:09;11.27;;;8.63;;
4144;SDS011;2086;51.050;6.982;2022-08-20T08:48:39;14.77;;;9.90;;
4144;SDS011;2086;51.050;6.982;2022-08-20T08:51:08;17.07;;;10.17;;
4144;SDS011;2086;51.050;6.982;2022-08-20T08:53:36;28.73;;;10.00;;
4144;SDS011;2086;51.050;6.982;2022-08-20T08:56:04;15.77;;;8.90;;
4144;SDS011;2086;51.050;6.982;2022-08-20T08:58:29;14.20;;;9.47;;
4144;SDS011;2086;51.050;6.982;2022-08-20T09:00:55;16.60;;;10.30;;
4144;SDS011;2086;51.050;6.982;2022-08-20T09:03:25;14.80;;;9.70;;
4144;SDS011;2086;51.050;6.982;2022-08-20T09:05:53;16.47;;;10.13;;
4144;SDS011;2086;51.050;6.982;2022-08-20T09:08:22;16.87;;;10.50;;
4144;SDS011;2086;51.050;6.982;2022-08-20T09:10:48;21.57;;;12.70;;
4144;SDS011;2086;51.050;6.982;2022-08-20T09:13:14;19.63;;;12.67;;
4144;SDS011;2086;51.050;6.982;2022-08-20T09:15:39;19.77;;;11.27;;
4144;SDS011;2086;51.050;6.982;2022-08-20T09:18:04;20.03;;;10.73;;
4144;SDS011;2086;51.050;6.982;2022-08-20T09:20:30;22.23;;;10.70;;
4144;SDS011;2086;51.050;6.982;2022-08-20T09:22:55;14.80;;;10.50;;
4144;SDS011;2086;51.050;6.982;2022-08-20T09:25:21;27.13;;;10.50;;
4144;SDS011;2086;51.050;6.982;2022-08-20T09:27:46;17.37;;;10.70;;
4144;SDS011;2086;51.050;6.982;2022-08-20T09:30:12;13.33;;;9.30;;
4144;SDS011;2086;51.050;6.982;2022-08-20T09:32:38;11.27;;;8.17;;
4144;SDS011;2086;51.050;6.982;2022-08-20T09:35:03;16.87;;;10.33;;
4144;SDS011;2086;51.050;6.982;2022-08-20T09:37:29;13.63;;;9.10;;
4144;SDS011;2086;51.050;6.982;2022-08-20T09:39:54;7.97;;;7.00;;
4144;SDS011;2086;51.050;6.982;2022-08-20T09:42:22;10.00;;;7.43;;
4144;SDS011;2086;51.050;6.982;2022-08-20T09:44:48;8.83;;;7.07;;
4144;SDS011;2086;51.050;6.982;2022-08-20T09:47:13;17.00;;;7.80;;
4144;SDS011;2086;51.050;6.982;2022-08-20T09:49:38;13.23;;;8.17;;
4144;SDS011;2086;51.050;6.982;2022-08-20T09:52:05;9.00;;;7.40;;
4144;SDS011;2086;51.050;6.982;2022-08-20T09:54:31;10.03;;;7.67;;
4144;SDS011;2086;51.050;6.982;2022-08-20T09:56:57;11.07;;;7.67;;
4144;SDS011;2086;51.050;6.982;2022-08-20T09:59:24;8.70;;;6.70;;
4144;SDS011;2086;51.050;6.982;2022-08-20T10:01:49;16.73;;;7.77;;
4144;SDS011;2086;51.050;6.982;2022-08-20T10:04:15;10.03;;;6.77;;
4144;SDS011;2086;51.050;6.982;2022-08-20T10:06:40;12.23;;;7.37;;
4144;SDS011;2086;51.050;6.982;2022-08-20T10:09:05;10.93;;;6.47;;
4144;SDS011;2086;51.050;6.982;2022-08-20T10:11:31;7.17;;;6.40;;
4144;SDS011;2086;51.050;6.982;2022-08-20T10:13:56;9.03;;;5.47;;
4144;SDS011;2086;51.050;6.982;2022-08-20T10:16:21;6.80;;;6.07;;
4144;SDS011;2086;51.050;6.982;2022-08-20T10:18:47;11.23;;;5.60;;
4144;SDS011;2086;51.050;6.982;2022-08-20T10:21:15;6.40;;;5.90;;
4144;SDS011;2086;51.050;6.982;2022-08-20T10:23:40;8.73;;;4.80;;
4144;SDS011;2086;51.050;6.982;2022-08-20T10:26:06;6.50;;;4.97;;
4144;SDS011;2086;51.050;6.982;2022-08-20T10:28:32;6.10;;;4.73;;
4144;SDS011;2086;51.050;6.982;2022-08-20T10:30:57;7.00;;;5.73;;
4144;SDS011;2086;51.050;6.982;2022-08-20T10:33:22;9.53;;;5.20;;
4144;SDS011;2086;51.050;6.982;2022-08-20T10:35:47;4.90;;;4.50;;
4144;SDS011;2086;51.050;6.982;2022-08-20T10:38:12;5.53;;;4.90;;
4144;SDS011;2086;51.050;6.982;2022-08-20T10:40:38;6.40;;;5.80;;
4144;SDS011;2086;51.050;6.982;2022-08-20T10:43:03;5.10;;;3.90;;
4144;SDS011;2086;51.050;6.982;2022-08-20T10:45:29;9.00;;;5.23;;
4144;SDS011;2086;51.050;6.982;2022-08-20T10:47:54;6.83;;;4.10;;
4144;SDS011;2086;51.050;6.982;2022-08-20T10:50:22;4.60;;;4.30;;
4144;SDS011;2086;51.050;6.982;2022-08-20T10:52:47;4.87;;;4.47;;
4144;SDS011;2086;51.050;6.982;2022-08-20T10:55:12;12.93;;;5.00;;
4144;SDS011;2086;51.050;6.982;2022-08-20T10:57:39;9.43;;;5.53;;
4144;SDS011;2086;51.050;6.982;2022-08-20T11:00:05;6.90;;;4.90;;
4144;SDS011;2086;51.050;6.982;2022-08-20T11:02:33;5.87;;;5.30;;
4144;SDS011;2086;51.050;6.982;2022-08-20T11:04:58;6.03;;;5.17;;
4144;SDS011;2086;51.050;6.982;2022-08-20T11:07:25;5.30;;;4.80;;
4144;SDS011;2086;51.050;6.982;2022-08-20T11:09:51;10.23;;;4.90;;
4144;SDS011;2086;51.050;6.982;2022-08-20T11:12:17;4.17;;;3.77;;
4144;SDS011;2086;51.050;6.982;2022-08-20T11:14:43;5.00;;;4.57;;
4144;SDS011;2086;51.050;6.982;2022-08-20T11:17:08;5.03;;;3.40;;
4144;SDS011;2086;51.050;6.982;2022-08-20T11:19:38;4.00;;;3.20;;
4144;SDS011;2086;51.050;6.982;2022-08-20T11:22:03;8.77;;;4.60;;
4144;SDS011;2086;51.050;6.982;2022-08-20T11:24:28;4.43;;;3.93;;
4144;SDS011;2086;51.050;6.982;2022-08-20T11:26:53;5.23;;;3.97;;
4144;SDS011;2086;51.050;6.982;2022-08-20T11:29:19;13.63;;;4.60;;
4144;SDS011;2086;51.050;6.982;2022-08-20T11:31:46;7.27;;;5.00;;
4144;SDS011;2086;51.050;6.982;2022-08-20T11:34:11;4.03;;;2.83;;
4144;SDS011;2086;51.050;6.982;2022-08-20T11:36:37;8.00;;;4.70;;
4144;SDS011;2086;51.050;6.982;2022-08-20T11:39:02;5.13;;;3.80;;
4144;SDS011;2086;51.050;6.982;2022-08-20T11:41:27;3.80;;;3.50;;
4144;SDS011;2086;51.050;6.982;2022-08-20T11:43:53;5.67;;;4.13;;
4144;SDS011;2086;51.050;6.982;2022-08-20T11:46:18;4.50;;;4.20;;
4144;SDS011;2086;51.050;6.982;2022-08-20T11:48:43;4.80;;;4.60;;
4144;SDS011;2086;51.050;6.982;2022-08-20T11:51:08;6.80;;;3.97;;
4144;SDS011;2086;51.050;6.982;2022-08-20T11:53:34;4.50;;;3.20;;
4144;SDS011;2086;51.050;6.982;2022-08-20T11:55:59;3.40;;;3.10;;
4144;SDS011;2086;51.050;6.982;2022-08-20T11:58:25;3.30;;;3.20;;
4144;SDS011;2086;51.050;6.982;2022-08-20T12:00:50;2.90;;;2.70;;
4144;SDS011;2086;51.050;6.982;2022-08-20T12:03:15;3.60;;;3.40;;
4144;SDS011;2086;51.050;6.982;2022-08-20T12:05:42;11.00;;;3.80;;
4144;SDS011;2086;51.050;6.982;2022-08-20T12:08:08;4.80;;;3.30;;
4144;SDS011;2086;51.050;6.982;2022-08-20T12:10:34;3.77;;;3.47;;
4144;SDS011;2086;51.050;6.982;2022-08-20T12:13:00;3.67;;;3.37;;
4144;SDS011;2086;51.050;6.982;2022-08-20T12:15:25;4.00;;;3.80;;
4144;SDS011;2086;51.050;6.982;2022-08-20T12:17:51;9.33;;;3.00;;
4144;SDS011;2086;51.050;6.982;2022-08-20T12:20:17;3.57;;;3.20;;
4144;SDS011;2086;51.050;6.982;2022-08-20T12:22:42;5.50;;;2.80;;
4144;SDS011;2086;51.050;6.982;2022-08-20T12:25:08;3.20;;;3.00;;
4144;SDS011;2086;51.050;6.982;2022-08-20T12:27:35;8.77;;;3.80;;
4144;SDS011;2086;51.050;6.982;2022-08-20T12:30:03;6.57;;;4.40;;
4144;SDS011;2086;51.050;6.982;2022-08-20T12:32:30;3.77;;;3.43;;
4144;SDS011;2086;51.050;6.982;2022-08-20T12:34:56;5.50;;;3.43;;
4144;SDS011;2086;51.050;6.982;2022-08-20T12:37:23;3.30;;;3.00;;
4144;SDS011;2086;51.050;6.982;2022-08-20T12:39:49;3.43;;;2.63;;
4144;SDS011;2086;51.050;6.982;2022-08-20T12:42:15;4.20;;;3.53;;
4144;SDS011;2086;51.050;6.982;2022-08-20T12:44:41;5.47;;;2.97;;
4144;SDS011;2086;51.050;6.982;2022-08-20T12:49:32;5.60;;;3.80;;
4144;SDS011;2086;51.050;6.982;2022-08-20T12:51:57;8.23;;;3.37;;
4144;SDS011;2086;51.050;6.982;2022-08-20T12:54:22;5.23;;;2.80;;
4144;SDS011;2086;51.050;6.982;2022-08-20T12:56:48;2.97;;;2.80;;
4144;SDS011;2086;51.050;6.982;2022-08-20T12:59:13;4.10;;;3.73;;
4144;SDS011;2086;51.050;6.982;2022-08-20T13:01:38;3.57;;;3.23;;
4144;SDS011;2086;51.050;6.982;2022-08-20T13:04:03;4.70;;;3.47;;
4144;SDS011;2086;51.050;6.982;2022-08-20T13:06:30;3.37;;;2.70;;
4144;SDS011;2086;51.050;6.982;2022-08-20T13:08:55;7.03;;;2.80;;
4144;SDS011;2086;51.050;6.982;2022-08-20T13:11:20;4.83;;;2.13;;
4144;SDS011;2086;51.050;6.982;2022-08-20T13:13:45;3.27;;;3.10;;
4144;SDS011;2086;51.050;6.982;2022-08-20T13:16:11;3.00;;;2.80;;
4144;SDS011;2086;51.050;6.982;2022-08-20T13:18:36;4.30;;;2.10;;
4144;SDS011;2086;51.050;6.982;2022-08-20T13:21:02;2.10;;;2.00;;
4144;SDS011;2086;51.050;6.982;2022-08-20T13:23:27;3.97;;;2.63;;
4144;SDS011;2086;51.050;6.982;2022-08-20T13:25:52;3.60;;;2.20;;
4144;SDS011;2086;51.050;6.982;2022-08-20T13:28:17;8.30;;;2.47;;
4144;SDS011;2086;51.050;6.982;2022-08-20T13:30:43;2.93;;;2.73;;
4144;SDS011;2086;51.050;6.982;2022-08-20T13:33:08;4.50;;;2.20;;
4144;SDS011;2086;51.050;6.982;2022-08-20T13:35:33;2.80;;;2.07;;
4144;SDS011;2086;51.050;6.982;2022-08-20T13:37:58;2.00;;;1.90;;
4144;SDS011;2086;51.050;6.982;2022-08-20T13:40:24;2.60;;;2.43;;
4144;SDS011;2086;51.050;6.982;2022-08-20T13:42:49;1.73;;;1.63;;
4144;SDS011;2086;51.050;6.982;2022-08-20T13:45:15;1.73;;;1.63;;
4144;SDS011;2086;51.050;6.982;2022-08-20T13:47:40;2.30;;;2.20;;
4144;SDS011;2086;51.050;6.982;2022-08-20T13:50:14;2.30;;;1.60;;
4144;SDS011;2086;51.050;6.982;2022-08-20T13:52:39;2.37;;;2.17;;
4144;SDS011;2086;51.050;6.982;2022-08-20T13:55:06;1.53;;;1.43;;
4144;SDS011;2086;51.050;6.982;2022-08-20T13:57:31;1.77;;;1.67;;
4144;SDS011;2086;51.050;6.982;2022-08-20T13:59:57;3.17;;;1.53;;
4144;SDS011;2086;51.050;6.982;2022-08-20T14:02:22;1.90;;;1.80;;
4144;SDS011;2086;51.050;6.982;2022-08-20T14:04:48;3.23;;;1.40;;
4144;SDS011;2086;51.050;6.982;2022-08-20T14:07:15;3.63;;;2.10;;
4144;SDS011;2086;51.050;6.982;2022-08-20T14:09:42;2.20;;;2.00;;
4144;SDS011;2086;51.050;6.982;2022-08-20T14:12:07;7.27;;;3.23;;
4144;SDS011;2086;51.050;6.982;2022-08-20T14:14:33;3.73;;;1.80;;
4144;SDS011;2086;51.050;6.982;2022-08-20T14:16:58;1.67;;;1.50;;
4144;SDS011;2086;51.050;6.982;2022-08-20T14:19:23;2.00;;;1.57;;
4144;SDS011;2086;51.050;6.982;2022-08-20T14:21:49;1.77;;;1.40;;
4144;SDS011;2086;51.050;6.982;2022-08-20T14:24:14;1.97;;;1.77;;
4144;SDS011;2086;51.050;6.982;2022-08-20T14:26:39;5.30;;;0.93;;
4144;SDS011;2086;51.050;6.982;2022-08-20T14:29:05;2.57;;;1.80;;
4144;SDS011;2086;51.050;6.982;2022-08-20T14:31:30;3.37;;;1.83;;
4144;SDS011;2086;51.050;6.982;2022-08-20T14:33:55;4.50;;;1.70;;
4144;SDS011;2086;51.050;6.982;2022-08-20T14:36:20;3.40;;;1.70;;
4144;SDS011;2086;51.050;6.982;2022-08-20T14:38:45;1.70;;;1.50;;
4144;SDS011;2086;51.050;6.982;2022-08-20T14:41:11;2.93;;;2.30;;
4144;SDS011;2086;51.050;6.982;2022-08-20T14:43:36;4.30;;;1.93;;
4144;SDS011;2086;51.050;6.982;2022-08-20T14:46:01;4.57;;;1.73;;
4144;SDS011;2086;51.050;6.982;2022-08-20T14:48:26;2.23;;;1.60;;
4144;SDS011;2086;51.050;6.982;2022-08-20T14:50:52;4.37;;;1.80;;
4144;SDS011;2086;51.050;6.982;2022-08-20T14:53:19;2.17;;;2.07;;
4144;SDS011;2086;51.050;6.982;2022-08-20T14:55:46;3.60;;;2.13;;
4144;SDS011;2086;51.050;6.982;2022-08-20T14:58:11;2.00;;;1.40;;
4144;SDS011;2086;51.050;6.982;2022-08-20T15:00:38;1.67;;;1.57;;
4144;SDS011;2086;51.050;6.982;2022-08-20T15:03:03;5.03;;;1.63;;
4144;SDS011;2086;51.050;6.982;2022-08-20T15:05:28;1.43;;;0.83;;
4144;SDS011;2086;51.050;6.982;2022-08-20T15:07:54;2.50;;;0.90;;
4144;SDS011;2086;51.050;6.982;2022-08-20T15:10:24;1.50;;;1.03;;